Time;durP1;ratioP1;P1;durP2;ratioP2;P2;SDS_P1;SDS_P2;PMS_P1;PMS_P2;Temp;Humidity;BMP_temperature;BMP_pressure;BME280_temperature;BME280_humidity;BME280_pressure;Samples;Min_cycle;Max_cycle;Signal;HPM_P1;HPM_P2
2022/03/31 00:01:06;;;;;;;;;;;;;;;6.94;48.86;96099.77;110884;1241;67630;-65
2022/03/31 00:03:38;;;;;;;;;;;;;;;6.94;48.63;96097.19;110840;1241;68235;-64
2022/03/31 00:06:07;;;;;;;;;;;;;;;6.93;50.84;96090.14;110843;1241;60597;-66
2022/03/31 00:08:37;;;;;;;;;;;;;;;6.92;51.01;96088.64;110858;1241;60482;-66
2022/03/31 00:11:08;;;;;;;;;;;;;;;6.91;50.45;96083.55;110820;1241;71634;-66
2022/03/31 00:13:37;;;;;;;;;;;;;;;6.90;50.11;96079.44;111009;1239;68475;-65
2022/03/31 00:16:08;;;;;;;;;;;;;;;6.92;49.66;96075.34;110863;1241;69576;-65
2022/03/31 00:18:38;;;;;;;;;;;;;;;6.93;50.91;96078.85;111135;1240;60474;-67
2022/03/31 00:21:08;;;;;;;;;;;;;;;6.96;51.57;96071.86;111081;1240;60528;-67
2022/03/31 00:23:38;;;;;;;;;;;;;;;6.99;50.46;96065.96;110812;1241;72313;-62
2022/03/31 00:26:08;;;;;;;;;;;;;;;7.01;49.51;96057.95;111160;1241;68616;-63
2022/03/31 00:28:38;;;;;;;;;;;;;;;7.02;50.09;96051.60;110827;1240;67604;-63
2022/03/31 00:31:08;;;;;;;;;;;;;;;7.02;48.97;96050.95;111148;1240;60522;-62
2022/03/31 00:33:38;;;;;;;;;;;;;;;7.01;49.08;96049.31;110827;1241;60487;-63
2022/03/31 00:36:08;;;;;;;;;;;;;;;7.00;48.85;96046.27;110884;1240;72183;-62
2022/03/31 00:38:38;;;;;;;;;;;;;;;6.99;50.45;96039.63;110750;1241;68797;-64
2022/03/31 00:41:09;;;;;;;;;;;;;;;6.97;49.91;96033.88;110881;1241;68977;-66
2022/03/31 00:43:38;;;;;;;;;;;;;;;6.95;48.76;96036.30;110723;1241;60516;-63
2022/03/31 00:46:08;;;;;;;;;;;;;;;6.96;49.29;96034.80;110801;1241;60550;-68
2022/03/31 00:48:39;;;;;;;;;;;;;;;6.97;49.73;96025.34;110652;1241;71559;-62
2022/03/31 00:51:10;;;;;;;;;;;;;;;6.97;49.43;96020.04;111021;1239;68363;-62
2022/03/31 00:53:39;;;;;;;;;;;;;;;6.96;50.05;96019.79;110786;1241;68527;-64
2022/03/31 00:56:09;;;;;;;;;;;;;;;6.94;50.01;96019.73;110839;1238;60474;-61
2022/03/31 00:58:39;;;;;;;;;;;;;;;6.93;50.71;96017.38;111179;1241;60567;-63
2022/03/31 01:01:11;;;;;;;;;;;;;;;6.91;49.54;96015.62;111110;1239;71386;-62
2022/03/31 01:03:42;;;;;;;;;;;;;;;6.87;47.74;96014.71;110954;1238;68617;-63
2022/03/31 01:06:12;;;;;;;;;;;;;;;6.83;47.75;96013.35;111131;1241;68851;-69
2022/03/31 01:08:43;;;;;;;;;;;;;;;6.78;49.45;96018.80;110854;1241;60563;-67
2022/03/31 01:11:14;;;;;;;;;;;;;;;6.72;50.49;96022.85;110895;1241;60529;-63
2022/03/31 01:13:44;;;;;;;;;;;;;;;6.67;51.57;96021.39;110943;1241;72119;-66
2022/03/31 01:16:14;;;;;;;;;;;;;;;6.61;51.52;96021.42;111169;1239;68770;-62
2022/03/31 01:18:44;;;;;;;;;;;;;;;6.57;50.60;96018.17;111119;1241;68465;-62
2022/03/31 01:21:13;;;;;;;;;;;;;;;6.52;51.20;96013.17;110773;1241;60506;-63
2022/03/31 01:23:44;;;;;;;;;;;;;;;6.48;50.39;96009.38;111143;1240;60537;-63
2022/03/31 01:26:19;;;;;;;;;;;;;;;6.44;49.68;96003.95;111081;1240;72306;-62
2022/03/31 01:28:50;;;;;;;;;;;;;;;6.42;49.22;96000.13;111020;1240;67738;-65
2022/03/31 01:31:20;;;;;;;;;;;;;;;6.42;48.83;95996.36;111109;1239;68556;-62
2022/03/31 01:33:50;;;;;;;;;;;;;;;6.43;48.61;95993.14;111161;1239;60511;-63
2022/03/31 01:36:20;;;;;;;;;;;;;;;6.46;48.85;95990.31;111146;1240;60537;-63
2022/03/31 01:38:55;;;;;;;;;;;;;;;6.46;48.31;95988.92;111098;1240;72147;-62
2022/03/31 01:41:24;;;;;;;;;;;;;;;6.48;49.17;95987.08;111108;1240;67388;-65
2022/03/31 01:43:54;;;;;;;;;;;;;;;6.49;49.51;95984.16;111088;1240;69224;-64
2022/03/31 01:46:25;;;;;;;;;;;;;;;6.50;50.88;95989.48;111139;1240;60528;-61
2022/03/31 01:48:55;;;;;;;;;;;;;;;6.47;51.51;95987.45;111130;1240;60485;-62
2022/03/31 01:51:25;;;;;;;;;;;;;;;6.42;52.13;95990.42;110748;1241;71376;-62
2022/03/31 01:53:56;;;;;;;;;;;;;;;6.38;51.60;95994.42;110753;1241;68343;-61
2022/03/31 01:56:25;;;;;;;;;;;;;;;6.32;50.84;95994.83;110799;1241;68682;-62
2022/03/31 01:58:57;;;;;;;;;;;;;;;6.29;51.14;95993.73;110858;1240;60546;-63
2022/03/31 02:01:28;;;;;;;;;;;;;;;6.27;52.13;95990.09;110982;1240;60560;-63
2022/03/31 02:03:59;;;;;;;;;;;;;;;6.21;52.59;95983.14;111131;1240;71374;-67
2022/03/31 02:06:29;;;;;;;;;;;;;;;6.14;51.87;95980.19;111091;1240;68464;-66
2022/03/31 02:08:59;;;;;;;;;;;;;;;6.07;52.43;95982.77;111110;1239;69068;-68
2022/03/31 02:11:28;;;;;;;;;;;;;;;6.02;50.51;95982.64;110834;1241;60494;-63
2022/03/31 02:13:58;;;;;;;;;;;;;;;5.99;50.57;95981.19;110893;1240;60491;-63
2022/03/31 02:16:28;;;;;;;;;;;;;;;5.96;49.83;95977.61;110879;1241;72213;-65
2022/03/31 02:18:57;;;;;;;;;;;;;;;5.96;49.94;95980.55;110897;1241;68469;-68
2022/03/31 02:21:27;;;;;;;;;;;;;;;5.96;50.44;95981.21;110796;1241;68748;-66
2022/03/31 02:23:57;;;;;;;;;;;;;;;5.98;50.28;95979.03;110712;1241;60578;-68
2022/03/31 02:26:26;;;;;;;;;;;;;;;5.98;49.83;95979.01;110535;1241;60481;-67
2022/03/31 02:28:56;;;;;;;;;;;;;;;5.97;49.44;95981.81;110871;1241;70521;-65
2022/03/31 02:31:26;;;;;;;;;;;;;;;5.96;49.68;95986.44;110856;1239;68559;-67
2022/03/31 02:33:56;;;;;;;;;;;;;;;5.94;50.05;95985.17;110735;1241;68990;-69
2022/03/31 02:36:28;;;;;;;;;;;;;;;5.93;51.07;95990.44;110840;1241;60545;-62
2022/03/31 02:38:58;;;;;;;;;;;;;;;5.93;49.85;95988.77;110864;1241;60557;-61
2022/03/31 02:41:27;;;;;;;;;;;;;;;5.92;50.37;95982.73;110571;1241;71417;-62
2022/03/31 02:43:58;;;;;;;;;;;;;;;5.91;50.45;95975.19;110730;1241;67818;-62
2022/03/31 02:46:28;;;;;;;;;;;;;;;5.91;50.71;95976.42;110612;1242;68673;-63
2022/03/31 02:48:59;;;;;;;;;;;;;;;5.91;50.06;95972.79;110543;1241;60614;-62
2022/03/31 02:51:28;;;;;;;;;;;;;;;5.93;49.54;95966.80;110840;1241;60500;-63
2022/03/31 02:56:46;;;;;;;;;;;;;;;5.91;50.19;95955.98;110120;1241;711138;-61
2022/03/31 02:59:16;;;;;;;;;;;;;;;5.87;50.46;95948.15;110508;1241;69320;-61
2022/03/31 03:01:46;;;;;;;;;;;;;;;5.84;51.25;95946.64;110776;1241;60539;-66
2022/03/31 03:04:16;;;;;;;;;;;;;;;5.81;51.54;95947.91;110722;1242;60457;-66
2022/03/31 03:06:46;;;;;;;;;;;;;;;5.78;52.51;95949.71;110811;1241;72148;-66
2022/03/31 03:09:15;;;;;;;;;;;;;;;5.78;52.59;95944.73;110867;1241;67658;-67
2022/03/31 03:11:46;;;;;;;;;;;;;;;5.78;52.44;95946.27;110673;1241;69398;-62
2022/03/31 03:14:16;;;;;;;;;;;;;;;5.80;52.34;95954.10;110885;1241;60545;-67
2022/03/31 03:16:46;;;;;;;;;;;;;;;5.81;53.26;95953.98;110745;1241;60434;-63
2022/03/31 03:19:17;;;;;;;;;;;;;;;5.80;51.92;95948.02;110804;1241;71552;-62
2022/03/31 03:21:47;;;;;;;;;;;;;;;5.79;51.70;95946.71;110809;1241;67832;-63
2022/03/31 03:24:17;;;;;;;;;;;;;;;5.80;51.13;95942.63;111137;1238;68233;-62
2022/03/31 03:26:47;;;;;;;;;;;;;;;5.85;51.06;95946.46;110753;1241;60894;-61
2022/03/31 03:29:16;;;;;;;;;;;;;;;5.88;51.86;95945.33;111007;1239;60481;-63
2022/03/31 03:31:47;;;;;;;;;;;;;;;5.89;51.41;95944.89;111162;1240;71613;-67
2022/03/31 03:34:17;;;;;;;;;;;;;;;5.92;50.29;95939.52;111063;1240;67769;-64
2022/03/31 03:36:46;;;;;;;;;;;;;;;5.96;53.10;95939.73;111062;1240;68568;-65
2022/03/31 03:39:15;;;;;;;;;;;;;;;5.96;53.60;95931.11;111048;1239;60518;-66
2022/03/31 03:41:45;;;;;;;;;;;;;;;5.94;51.93;95927.95;110829;1241;60537;-64
2022/03/31 03:44:14;;;;;;;;;;;;;;;5.94;51.11;95929.16;110512;1241;71634;-63
2022/03/31 03:46:44;;;;;;;;;;;;;;;5.93;53.46;95917.66;110782;1241;68430;-62
2022/03/31 03:49:13;;;;;;;;;;;;;;;5.87;53.68;95913.95;111154;1240;69444;-66
2022/03/31 03:51:43;;;;;;;;;;;;;;;5.84;54.33;95914.70;111131;1240;60489;-65
2022/03/31 03:54:12;;;;;;;;;;;;;;;5.82;53.86;95917.77;111020;1239;60548;-67
2022/03/31 03:56:43;;;;;;;;;;;;;;;5.74;54.00;95916.49;111057;1240;70876;-63
2022/03/31 03:59:12;;;;;;;;;;;;;;;5.65;54.17;95920.45;111008;1240;68362;-61
2022/03/31 04:01:41;;;;;;;;;;;;;;;5.59;55.62;95915.73;110711;1240;68758;-62
2022/03/31 04:04:12;;;;;;;;;;;;;;;5.54;56.00;95915.06;111101;1240;60533;-63
2022/03/31 04:06:42;;;;;;;;;;;;;;;5.50;54.97;95913.00;110741;1241;60515;-61
2022/03/31 04:09:11;;;;;;;;;;;;;;;5.44;56.19;95907.55;111159;1240;72355;-65
2022/03/31 04:11:41;;;;;;;;;;;;;;;5.40;56.70;95905.66;111171;1240;68991;-64
2022/03/31 04:14:10;;;;;;;;;;;;;;;5.35;56.14;95911.67;111072;1238;69283;-67
2022/03/31 04:16:40;;;;;;;;;;;;;;;5.31;54.93;95906.85;110790;1241;60545;-66
2022/03/31 04:19:09;;;;;;;;;;;;;;;5.28;54.81;95903.23;111115;1240;60457;-67
2022/03/31 04:21:39;;;;;;;;;;;;;;;5.30;55.21;95904.96;110995;1241;72797;-63
2022/03/31 04:24:09;;;;;;;;;;;;;;;5.35;53.95;95901.66;110714;1241;68571;-64
2022/03/31 04:26:42;;;;;;;;;;;;;;;5.39;56.27;95901.20;110893;1241;69388;-60
2022/03/31 04:29:12;;;;;;;;;;;;;;;5.43;57.34;95901.58;111065;1240;60537;-63
2022/03/31 04:31:43;;;;;;;;;;;;;;;5.47;56.17;95899.88;110802;1241;60491;-64
2022/03/31 04:34:15;;;;;;;;;;;;;;;5.54;53.90;95898.48;111144;1240;71616;-60
2022/03/31 04:36:48;;;;;;;;;;;;;;;5.64;54.50;95891.20;111037;1240;68778;-63
2022/03/31 04:39:19;;;;;;;;;;;;;;;5.73;51.60;95890.45;110768;1241;69419;-62
2022/03/31 04:41:50;;;;;;;;;;;;;;;5.86;50.87;95894.84;110739;1241;60500;-64
2022/03/31 04:44:21;;;;;;;;;;;;;;;5.94;55.06;95899.73;110994;1240;60551;-63
2022/03/31 04:46:51;;;;;;;;;;;;;;;5.90;56.75;95902.95;110814;1241;72140;-62
2022/03/31 04:49:22;;;;;;;;;;;;;;;5.88;57.69;95908.17;110615;1241;68531;-68
2022/03/31 04:51:53;;;;;;;;;;;;;;;5.89;57.51;95907.44;110853;1240;68476;-64
2022/03/31 04:54:23;;;;;;;;;;;;;;;5.92;56.77;95905.25;110843;1240;60627;-62
2022/03/31 04:56:53;;;;;;;;;;;;;;;5.99;56.18;95903.85;111127;1240;60459;-63
2022/03/31 04:59:24;;;;;;;;;;;;;;;6.05;56.80;95907.35;111140;1240;71023;-61
2022/03/31 05:01:53;;;;;;;;;;;;;;;6.09;55.30;95905.45;110981;1239;68869;-62
2022/03/31 05:04:22;;;;;;;;;;;;;;;6.16;56.70;95908.79;111080;1239;67532;-62
2022/03/31 05:06:51;;;;;;;;;;;;;;;6.24;56.88;95907.42;111134;1240;60566;-62
2022/03/31 05:09:21;;;;;;;;;;;;;;;6.33;55.41;95909.32;110823;1240;60440;-63
2022/03/31 05:11:50;;;;;;;;;;;;;;;6.42;56.89;95906.87;110855;1241;71439;-62
2022/03/31 05:14:19;;;;;;;;;;;;;;;6.49;58.47;95906.16;111055;1239;67940;-63
2022/03/31 05:16:49;;;;;;;;;;;;;;;6.52;58.41;95907.83;110653;1241;69419;-66
2022/03/31 05:19:19;;;;;;;;;;;;;;;6.53;58.21;95909.27;110721;1241;60542;-63
2022/03/31 05:21:48;;;;;;;;;;;;;;;6.53;57.86;95911.32;110856;1241;60529;-67
2022/03/31 05:24:17;;;;;;;;;;;;;;;6.56;57.49;95911.06;111023;1238;72950;-67
2022/03/31 05:26:47;;;;;;;;;;;;;;;6.60;57.52;95908.89;111047;1239;67781;-64
2022/03/31 05:29:16;;;;;;;;;;;;;;;6.65;58.50;95912.63;110823;1241;69982;-67
2022/03/31 05:31:45;;;;;;;;;;;;;;;6.68;56.82;95913.44;110897;1240;60535;-66
2022/03/31 05:34:14;;;;;;;;;;;;;;;6.69;55.21;95915.41;110977;1239;60524;-66
2022/03/31 05:36:43;;;;;;;;;;;;;;;6.68;54.69;95922.30;110847;1241;71611;-69
2022/03/31 05:39:13;;;;;;;;;;;;;;;6.63;54.72;95923.00;111019;1240;67784;-62
2022/03/31 05:41:42;;;;;;;;;;;;;;;6.68;54.24;95924.69;110699;1240;69366;-64
2022/03/31 05:44:11;;;;;;;;;;;;;;;6.75;53.97;95925.69;111126;1239;60464;-64
2022/03/31 05:46:42;;;;;;;;;;;;;;;6.79;54.52;95924.87;111043;1240;60485;-62
2022/03/31 05:49:11;;;;;;;;;;;;;;;6.84;54.16;95922.17;111134;1240;72275;-62
2022/03/31 05:51:40;;;;;;;;;;;;;;;6.91;53.65;95925.22;110791;1238;67833;-62
2022/03/31 05:54:10;;;;;;;;;;;;;;;6.92;53.16;95921.31;111097;1240;69530;-62
2022/03/31 05:56:40;;;;;;;;;;;;;;;6.94;51.93;95927.42;110997;1239;60526;-64
2022/03/31 05:59:10;;;;;;;;;;;;;;;6.96;51.64;95931.77;111114;1240;60863;-68
2022/03/31 06:01:39;;;;;;;;;;;;;;;7.06;51.71;95939.44;111020;1238;71239;-64
2022/03/31 06:04:09;;;;;;;;;;;;;;;7.13;51.73;95939.16;111057;1240;67891;-63
2022/03/31 06:06:38;;;;;;;;;;;;;;;7.22;51.79;95939.48;111057;1239;69423;-63
2022/03/31 06:09:07;;;;;;;;;;;;;;;7.33;51.29;95934.76;110629;1241;60577;-61
2022/03/31 06:11:36;;;;;;;;;;;;;;;7.46;51.44;95935.05;111114;1239;60478;-62
2022/03/31 06:14:05;;;;;;;;;;;;;;;7.59;50.57;95930.27;111118;1238;72354;-66
2022/03/31 06:16:34;;;;;;;;;;;;;;;7.73;50.11;95931.90;111075;1240;68696;-66
2022/03/31 06:19:04;;;;;;;;;;;;;;;7.87;50.06;95927.96;111092;1240;69623;-67
2022/03/31 06:21:34;;;;;;;;;;;;;;;8.03;50.40;95928.17;111031;1239;60531;-66
2022/03/31 06:24:03;;;;;;;;;;;;;;;8.19;51.33;95934.02;111133;1240;60413;-64
2022/03/31 06:26:32;;;;;;;;;;;;;;;8.39;52.40;95939.30;110698;1241;72386;-62
2022/03/31 06:29:04;;;;;;;;;;;;;;;8.56;52.14;95940.00;111037;1238;68160;-63
2022/03/31 06:31:34;;;;;;;;;;;;;;;8.77;52.49;95934.56;110822;1241;69233;-62
2022/03/31 06:34:04;;;;;;;;;;;;;;;8.98;52.48;95937.34;111077;1240;60576;-62
2022/03/31 06:36:33;;;;;;;;;;;;;;;9.17;52.03;95940.36;110992;1240;60485;-62
2022/03/31 06:39:03;;;;;;;;;;;;;;;9.36;51.86;95942.48;110998;1241;71530;-62
2022/03/31 06:41:31;;;;;;;;;;;;;;;9.53;51.29;95939.97;110795;1241;68852;-61
2022/03/31 06:44:00;;;;;;;;;;;;;;;9.70;50.23;95933.09;111084;1240;68750;-65
2022/03/31 06:46:29;;;;;;;;;;;;;;;9.83;49.86;95932.05;111005;1241;60527;-68
2022/03/31 06:48:58;;;;;;;;;;;;;;;9.96;50.53;95928.39;111086;1240;60463;-63
2022/03/31 06:51:27;;;;;;;;;;;;;;;10.08;49.05;95928.31;110839;1239;73018;-63
2022/03/31 06:53:57;;;;;;;;;;;;;;;10.18;48.41;95926.96;111032;1241;68840;-63
2022/03/31 06:56:31;;;;;;;;;;;;;;;10.27;48.15;95931.60;111046;1239;69569;-63
2022/03/31 06:59:01;;;;;;;;;;;;;;;10.36;49.23;95940.79;110972;1240;60469;-63
2022/03/31 07:01:30;;;;;;;;;;;;;;;10.49;48.55;95938.00;110862;1239;60463;-64
2022/03/31 07:03:59;;;;;;;;;;;;;;;10.60;47.98;95936.03;110936;1240;72175;-62
2022/03/31 07:06:28;;;;;;;;;;;;;;;10.73;47.26;95932.56;110883;1241;68555;-66
2022/03/31 07:08:57;;;;;;;;;;;;;;;10.88;46.79;95935.98;110836;1240;69662;-64
2022/03/31 07:11:26;;;;;;;;;;;;;;;11.01;45.32;95937.52;110819;1241;60477;-68
2022/03/31 07:13:56;;;;;;;;;;;;;;;11.12;45.63;95930.54;110811;1239;60433;-65
2022/03/31 07:16:26;;;;;;;;;;;;;;;11.18;45.22;95932.45;110876;1241;72306;-67
2022/03/31 07:18:55;;;;;;;;;;;;;;;11.29;45.93;95936.66;110702;1241;67725;-65
2022/03/31 07:21:24;;;;;;;;;;;;;;;11.40;45.66;95925.65;111039;1239;69300;-66
2022/03/31 07:23:53;;;;;;;;;;;;;;;11.51;43.34;95925.73;111023;1238;60559;-65
2022/03/31 07:26:22;;;;;;;;;;;;;;;11.64;43.11;95927.02;111074;1240;60472;-66
2022/03/31 07:28:52;;;;;;;;;;;;;;;11.79;43.63;95921.95;110821;1241;72403;-68
2022/03/31 07:31:28;;;;;;;;;;;;;;;11.94;42.82;95919.30;110887;1240;68553;-67
2022/03/31 07:33:56;;;;;;;;;;;;;;;12.10;42.79;95919.09;111077;1240;69319;-65
2022/03/31 07:36:26;;;;;;;;;;;;;;;12.20;42.02;95922.80;110881;1241;60524;-65
2022/03/31 07:38:55;;;;;;;;;;;;;;;12.26;41.11;95922.34;110792;1241;60503;-62
2022/03/31 07:41:24;;;;;;;;;;;;;;;12.36;42.93;95920.46;110849;1241;70683;-62
2022/03/31 07:43:53;;;;;;;;;;;;;;;12.43;43.18;95924.59;110646;1241;67866;-64
2022/03/31 07:46:22;;;;;;;;;;;;;;;12.45;42.70;95923.81;110697;1239;67764;-64
2022/03/31 07:48:51;;;;;;;;;;;;;;;12.43;42.28;95925.48;111007;1239;60480;-65
2022/03/31 07:51:20;;;;;;;;;;;;;;;12.44;41.19;95932.95;110748;1241;60500;-62
2022/03/31 07:53:49;;;;;;;;;;;;;;;12.45;40.31;95933.83;110902;1241;72892;-66
2022/03/31 07:56:18;;;;;;;;;;;;;;;12.53;40.93;95925.50;111167;1238;68851;-65
2022/03/31 07:58:48;;;;;;;;;;;;;;;12.60;39.58;95929.09;110865;1241;69415;-66
2022/03/31 08:01:18;;;;;;;;;;;;;;;12.71;39.51;95927.75;110827;1241;60494;-63
2022/03/31 08:03:48;;;;;;;;;;;;;;;12.86;40.33;95932.48;110796;1241;60519;-62
2022/03/31 08:06:17;;;;;;;;;;;;;;;12.96;39.26;95929.32;110848;1241;71785;-63
2022/03/31 08:08:46;;;;;;;;;;;;;;;13.04;39.33;95934.25;110874;1241;69285;-63
2022/03/31 08:11:15;;;;;;;;;;;;;;;13.11;38.70;95936.02;110806;1239;68760;-63
2022/03/31 08:13:44;;;;;;;;;;;;;;;13.21;39.06;95931.09;110886;1241;60525;-64
2022/03/31 08:16:17;;;;;;;;;;;;;;;13.33;38.76;95926.73;110843;1241;60508;-63
2022/03/31 08:18:49;;;;;;;;;;;;;;;13.48;39.31;95923.10;110905;1241;72212;-67
2022/03/31 08:21:18;;;;;;;;;;;;;;;13.65;39.46;95907.66;111075;1240;68723;-67
2022/03/31 08:23:47;;;;;;;;;;;;;;;13.83;38.89;95900.88;110859;1240;69458;-68
2022/03/31 08:26:17;;;;;;;;;;;;;;;14.01;38.54;95894.10;110789;1241;60587;-65
2022/03/31 08:28:46;;;;;;;;;;;;;;;14.13;38.06;95903.45;110820;1241;60553;-63
2022/03/31 08:31:15;;;;;;;;;;;;;;;14.22;37.99;95907.80;110769;1241;72378;-62
2022/03/31 08:33:44;;;;;;;;;;;;;;;14.21;38.20;95911.23;110901;1241;68608;-63
2022/03/31 08:36:13;;;;;;;;;;;;;;;14.24;38.30;95910.08;110852;1241;68797;-64
2022/03/31 08:38:43;;;;;;;;;;;;;;;14.27;38.16;95909.36;110955;1241;60481;-62
2022/03/31 08:41:13;;;;;;;;;;;;;;;14.31;38.15;95908.27;110986;1241;60477;-61
2022/03/31 08:43:42;;;;;;;;;;;;;;;14.36;38.16;95903.80;110815;1241;72391;-66
2022/03/31 08:46:11;;;;;;;;;;;;;;;14.52;37.84;95906.23;110957;1240;68698;-64
2022/03/31 08:48:40;;;;;;;;;;;;;;;14.68;37.51;95908.48;110712;1240;69525;-63
2022/03/31 08:51:10;;;;;;;;;;;;;;;14.77;37.06;95900.30;111003;1240;60521;-63
2022/03/31 08:53:39;;;;;;;;;;;;;;;14.84;37.01;95902.44;110876;1241;60825;-64
2022/03/31 08:56:09;;;;;;;;;;;;;;;14.90;36.63;95899.73;110801;1241;72066;-63
2022/03/31 08:58:38;;;;;;;;;;;;;;;14.89;36.79;95898.63;110886;1241;69275;-63
2022/03/31 09:01:08;;;;;;;;;;;;;;;14.96;36.97;95901.07;110901;1240;67545;-64
2022/03/31 09:03:38;;;;;;;;;;;;;;;15.11;36.38;95909.06;110981;1241;60505;-66
2022/03/31 09:06:10;;;;;;;;;;;;;;;15.19;35.87;95899.84;110880;1241;60489;-66
2022/03/31 09:08:39;;;;;;;;;;;;;;;15.24;35.91;95893.85;110893;1241;71365;-67
2022/03/31 09:11:08;;;;;;;;;;;;;;;15.32;35.83;95881.88;110674;1241;68076;-64
2022/03/31 09:13:40;;;;;;;;;;;;;;;15.39;35.44;95877.66;110804;1238;68614;-64
2022/03/31 09:16:11;;;;;;;;;;;;;;;15.44;35.05;95889.20;111151;1238;60536;-66
2022/03/31 09:18:40;;;;;;;;;;;;;;;15.50;35.04;95894.11;111147;1239;60479;-63
2022/03/31 09:21:13;;;;;;;;;;;;;;;15.54;34.72;95890.45;110890;1239;70682;-63
2022/03/31 09:23:43;;;;;;;;;;;;;;;15.62;34.51;95890.81;111085;1240;68576;-63
2022/03/31 09:26:14;;;;;;;;;;;;;;;15.59;33.60;95885.86;110773;1241;68820;-63
2022/03/31 09:28:46;;;;;;;;;;;;;;;15.54;33.51;95890.29;111175;1240;60524;-62
2022/03/31 09:31:27;;;;;;;;;;;;;;;15.44;33.45;95890.83;110872;1240;60489;-62
2022/03/31 09:33:57;;;;;;;;;;;;;;;15.30;33.17;95890.39;111142;1241;72357;-63
2022/03/31 09:36:27;;;;;;;;;;;;;;;15.17;33.48;95900.27;111133;1239;67563;-62
2022/03/31 09:38:58;;;;;;;;;;;;;;;15.11;34.02;95897.40;111062;1239;70089;-62
2022/03/31 09:41:29;;;;;;;;;;;;;;;15.08;34.48;95895.73;111017;1240;60543;-65
2022/03/31 09:44:02;;;;;;;;;;;;;;;15.09;34.71;95892.98;111159;1240;60456;-62
2022/03/31 09:46:36;;;;;;;;;;;;;;;15.11;34.72;95891.13;110900;1239;72368;-65
2022/03/31 09:49:24;;;;;;;;;;;;;;;15.11;34.56;95882.86;111113;1239;67783;-62
2022/03/31 09:51:57;;;;;;;;;;;;;;;15.13;34.83;95879.46;111108;1240;69585;-63
2022/03/31 09:54:31;;;;;;;;;;;;;;;15.12;34.81;95870.25;111160;1238;60927;-63
2022/03/31 09:57:02;;;;;;;;;;;;;;;15.13;34.59;95868.44;111153;1240;60516;-64
2022/03/31 09:59:32;;;;;;;;;;;;;;;15.17;34.85;95856.92;111221;1239;72447;-63
2022/03/31 10:02:02;;;;;;;;;;;;;;;15.22;35.29;95851.91;110895;1241;67809;-64
2022/03/31 10:04:32;;;;;;;;;;;;;;;15.24;35.11;95861.52;110647;1241;69782;-62
2022/03/31 10:07:03;;;;;;;;;;;;;;;15.25;35.12;95848.77;110899;1241;60929;-63
2022/03/31 10:09:34;;;;;;;;;;;;;;;15.28;35.17;95846.45;110853;1241;60441;-62
2022/03/31 10:12:23;;;;;;;;;;;;;;;15.32;35.21;95845.34;111020;1240;73047;-64
2022/03/31 10:14:56;;;;;;;;;;;;;;;15.34;34.83;95837.73;111127;1240;69005;-63
2022/03/31 10:17:26;;;;;;;;;;;;;;;15.37;34.90;95835.26;111137;1238;68597;-65
2022/03/31 10:20:12;;;;;;;;;;;;;;;15.46;34.75;95825.10;110817;1240;60903;-61
2022/03/31 10:25:41;;;;;;;;;;;;;;;15.70;33.72;95815.95;111173;1240;73028;-63
2022/03/31 10:28:11;;;;;;;;;;;;;;;15.90;33.61;95817.14;111132;1240;68623;-64
2022/03/31 10:30:51;;;;;;;;;;;;;;;16.10;33.05;95818.65;110741;1241;69450;-64
2022/03/31 10:33:44;;;;;;;;;;;;;;;16.33;32.98;95810.72;110512;1241;60549;-66
2022/03/31 10:36:14;;;;;;;;;;;;;;;16.52;32.51;95801.88;111087;1238;60542;-66
2022/03/31 10:38:57;;;;;;;;;;;;;;;16.55;32.35;95803.77;110619;1241;71579;-65
2022/03/31 10:41:34;;;;;;;;;;;;;;;16.52;32.50;95803.95;111113;1240;68064;-66
2022/03/31 10:44:04;;;;;;;;;;;;;;;16.43;33.02;95802.96;110899;1239;69557;-65
2022/03/31 10:46:33;;;;;;;;;;;;;;;16.32;32.95;95795.14;111098;1240;60535;-65
2022/03/31 10:49:04;;;;;;;;;;;;;;;16.22;33.52;95792.11;111174;1240;60477;-63
2022/03/31 10:51:36;;;;;;;;;;;;;;;16.16;33.98;95785.67;111099;1239;72521;-64
2022/03/31 10:54:06;;;;;;;;;;;;;;;16.03;34.42;95786.90;111148;1240;67801;-67
2022/03/31 10:56:35;;;;;;;;;;;;;;;15.95;34.20;95786.14;111097;1240;69541;-68
2022/03/31 10:59:06;;;;;;;;;;;;;;;15.93;34.49;95784.71;111132;1240;60537;-65
2022/03/31 11:01:36;;;;;;;;;;;;;;;15.99;34.51;95780.32;111080;1240;60475;-64
2022/03/31 11:04:09;;;;;;;;;;;;;;;16.06;34.27;95773.02;111095;1240;72653;-62
2022/03/31 11:06:48;;;;;;;;;;;;;;;16.15;34.32;95767.30;111158;1240;68817;-64
2022/03/31 11:09:22;;;;;;;;;;;;;;;16.24;34.29;95755.70;111042;1239;69367;-64
2022/03/31 11:11:51;;;;;;;;;;;;;;;16.25;33.90;95749.07;110892;1240;60567;-63
2022/03/31 11:14:20;;;;;;;;;;;;;;;16.21;33.93;95749.06;110869;1241;60517;-63
2022/03/31 11:16:50;;;;;;;;;;;;;;;16.12;34.24;95750.64;111139;1240;72275;-66
2022/03/31 11:19:20;;;;;;;;;;;;;;;16.16;34.35;95745.30;111109;1239;69042;-65
2022/03/31 11:21:49;;;;;;;;;;;;;;;16.26;34.63;95736.75;111100;1240;69402;-67
2022/03/31 11:24:23;;;;;;;;;;;;;;;16.36;34.42;95727.72;111146;1240;60540;-68
2022/03/31 11:26:54;;;;;;;;;;;;;;;16.36;34.46;95726.10;110888;1241;60467;-66
2022/03/31 11:29:26;;;;;;;;;;;;;;;16.38;34.62;95720.36;110865;1240;71568;-65
2022/03/31 11:31:56;;;;;;;;;;;;;;;16.41;34.47;95716.66;111087;1241;67978;-66
2022/03/31 11:34:28;;;;;;;;;;;;;;;16.42;34.54;95705.50;111147;1239;69449;-64
2022/03/31 11:37:00;;;;;;;;;;;;;;;16.51;34.36;95707.52;110868;1241;60541;-65
2022/03/31 11:39:30;;;;;;;;;;;;;;;16.64;34.48;95701.88;110870;1241;60425;-64
2022/03/31 11:42:10;;;;;;;;;;;;;;;16.81;34.02;95695.70;111116;1239;71821;-65
2022/03/31 11:44:41;;;;;;;;;;;;;;;16.89;33.74;95701.45;110803;1241;67899;-64
2022/03/31 11:47:11;;;;;;;;;;;;;;;16.88;33.80;95699.41;110778;1239;68703;-65
2022/03/31 11:49:43;;;;;;;;;;;;;;;16.87;33.95;95699.45;111090;1240;60883;-64
2022/03/31 11:52:11;;;;;;;;;;;;;;;16.87;33.96;95699.81;111131;1239;60414;-63
2022/03/31 11:54:41;;;;;;;;;;;;;;;16.87;33.92;95694.86;111053;1238;72500;-63
2022/03/31 11:57:15;;;;;;;;;;;;;;;16.86;34.00;95687.66;110870;1241;69145;-65
2022/03/31 11:59:44;;;;;;;;;;;;;;;16.80;34.56;95687.94;111127;1239;69730;-65
2022/03/31 12:02:17;;;;;;;;;;;;;;;16.73;34.81;95692.92;111025;1238;60916;-68
2022/03/31 12:04:47;;;;;;;;;;;;;;;16.82;35.16;95688.36;111087;1240;60529;-65
2022/03/31 12:07:19;;;;;;;;;;;;;;;16.99;35.01;95680.16;111096;1239;73013;-63
2022/03/31 12:09:48;;;;;;;;;;;;;;;17.13;34.62;95675.94;110935;1240;69351;-64
2022/03/31 12:12:18;;;;;;;;;;;;;;;17.28;34.55;95669.80;111034;1239;70002;-63
2022/03/31 12:14:57;;;;;;;;;;;;;;;17.55;34.06;95670.67;111116;1240;60548;-65
2022/03/31 12:17:27;;;;;;;;;;;;;;;17.91;33.63;95665.94;111012;1238;60471;-65
2022/03/31 12:19:56;;;;;;;;;;;;;;;18.18;33.36;95652.78;111015;1239;72308;-63
2022/03/31 12:22:34;;;;;;;;;;;;;;;18.11;33.44;95646.23;110868;1241;67854;-63
2022/03/31 12:25:03;;;;;;;;;;;;;;;17.99;33.64;95654.81;110842;1239;69552;-63
2022/03/31 12:27:32;;;;;;;;;;;;;;;17.86;33.59;95649.50;111078;1239;60463;-65
2022/03/31 12:30:03;;;;;;;;;;;;;;;17.71;34.03;95650.48;110839;1241;60500;-66
2022/03/31 12:32:33;;;;;;;;;;;;;;;17.67;34.13;95641.48;111054;1240;72401;-67
2022/03/31 12:35:05;;;;;;;;;;;;;;;17.62;34.51;95635.09;110644;1241;68719;-66
2022/03/31 12:37:38;;;;;;;;;;;;;;;17.48;34.70;95631.79;110792;1241;69218;-63
2022/03/31 12:40:09;;;;;;;;;;;;;;;17.45;34.80;95615.68;110642;1241;60562;-62
2022/03/31 12:42:57;;;;;;;;;;;;;;;17.46;35.06;95614.19;110769;1240;60455;-64
2022/03/31 12:45:28;;;;;;;;;;;;;;;17.45;35.44;95622.51;110929;1240;72948;-64
2022/03/31 12:47:58;;;;;;;;;;;;;;;17.44;35.65;95621.52;110869;1241;67857;-63
2022/03/31 12:50:33;;;;;;;;;;;;;;;17.41;36.00;95622.58;110751;1241;68887;-66
2022/03/31 12:53:03;;;;;;;;;;;;;;;17.36;35.92;95628.65;110956;1241;60539;-63
2022/03/31 12:55:33;;;;;;;;;;;;;;;17.28;36.08;95629.55;110967;1240;60480;-64
2022/03/31 12:58:04;;;;;;;;;;;;;;;17.22;36.18;95630.21;110907;1240;71578;-66
2022/03/31 13:00:35;;;;;;;;;;;;;;;17.23;36.11;95623.59;110798;1240;68456;-65
2022/03/31 13:03:10;;;;;;;;;;;;;;;17.15;36.34;95623.52;111036;1240;67966;-65
2022/03/31 13:05:39;;;;;;;;;;;;;;;17.08;36.36;95620.06;110630;1239;60539;-65